sensor_id;sensor_type;location;lat;lon;timestamp;P1;durP1;ratioP1;P2;durP2;ratioP2
23360;SDS011;11852;50.082;18.554;2023-03-24T00:00:28;12.0;;;4.0;;
23360;SDS011;11852;50.082;18.554;2023-03-24T00:01:35;11.0;;;4.0;;
23360;SDS011;11852;50.082;18.554;2023-03-24T00:02:43;10.0;;;4.0;;
23360;SDS011;11852;50.082;18.554;2023-03-24T00:03:53;8.0;;;4.0;;
23360;SDS011;11852;50.082;18.554;2023-03-24T00:05:00;11.0;;;4.0;;
23360;SDS011;11852;50.082;18.554;2023-03-24T00:06:09;12.0;;;4.0;;
23360;SDS011;11852;50.082;18.554;2023-03-24T00:07:15;11.0;;;4.0;;
23360;SDS011;11852;50.082;18.554;2023-03-24T00:08:22;12.0;;;5.0;;
23360;SDS011;11852;50.082;18.554;2023-03-24T00:09:31;12.0;;;4.0;;
23360;SDS011;11852;50.082;18.554;2023-03-24T00:10:38;12.0;;;5.0;;
23360;SDS011;11852;50.082;18.554;2023-03-24T00:11:45;13.0;;;5.0;;
23360;SDS011;11852;50.082;18.554;2023-03-24T00:12:52;10.0;;;4.0;;
23360;SDS011;11852;50.082;18.554;2023-03-24T00:14:00;10.0;;;4.0;;
23360;SDS011;11852;50.082;18.554;2023-03-24T00:15:12;10.0;;;4.0;;
23360;SDS011;11852;50.082;18.554;2023-03-24T00:16:20;11.0;;;5.0;;
23360;SDS011;11852;50.082;18.554;2023-03-24T00:17:28;10.0;;;4.0;;
23360;SDS011;11852;50.082;18.554;2023-03-24T00:18:36;9.0;;;4.0;;
23360;SDS011;11852;50.082;18.554;2023-03-24T00:19:48;8.0;;;4.0;;
23360;SDS011;11852;50.082;18.554;2023-03-24T00:20:56;9.0;;;4.0;;
23360;SDS011;11852;50.082;18.554;2023-03-24T00:22:07;10.0;;;4.0;;
23360;SDS011;11852;50.082;18.554;2023-03-24T00:23:14;11.0;;;4.0;;
23360;SDS011;11852;50.082;18.554;2023-03-24T00:24:24;10.0;;;4.0;;
23360;SDS011;11852;50.082;18.554;2023-03-24T00:25:37;10.0;;;4.0;;
23360;SDS011;11852;50.082;18.554;2023-03-24T00:26:45;10.0;;;4.0;;
23360;SDS011;11852;50.082;18.554;2023-03-24T00:27:54;11.0;;;4.0;;
23360;SDS011;11852;50.082;18.554;2023-03-24T00:29:04;10.0;;;4.0;;
23360;SDS011;11852;50.082;18.554;2023-03-24T00:30:21;11.0;;;4.0;;
23360;SDS011;11852;50.082;18.554;2023-03-24T00:31:28;12.0;;;4.0;;
23360;SDS011;11852;50.082;18.554;2023-03-24T00:32:36;12.0;;;5.0;;
23360;SDS011;11852;50.082;18.554;2023-03-24T00:33:49;11.0;;;4.0;;
23360;SDS011;11852;50.082;18.554;2023-03-24T00:35:31;14.0;;;5.0;;
23360;SDS011;11852;50.082;18.554;2023-03-24T00:37:08;14.0;;;5.0;;
23360;SDS011;11852;50.082;18.554;2023-03-24T00:38:22;13.0;;;5.0;;
23360;SDS011;11852;50.082;18.554;2023-03-24T00:39:29;10.0;;;4.0;;
23360;SDS011;11852;50.082;18.554;2023-03-24T00:40:43;11.0;;;5.0;;
23360;SDS011;11852;50.082;18.554;2023-03-24T00:41:46;10.0;;;4.0;;
23360;SDS011;11852;50.082;18.554;2023-03-24T00:42:54;7.0;;;3.0;;
23360;SDS011;11852;50.082;18.554;2023-03-24T00:44:02;8.0;;;3.0;;
23360;SDS011;11852;50.082;18.554;2023-03-24T00:45:14;7.0;;;3.0;;
23360;SDS011;11852;50.082;18.554;2023-03-24T00:46:26;8.0;;;4.0;;
23360;SDS011;11852;50.082;18.554;2023-03-24T00:47:36;9.0;;;4.0;;
23360;SDS011;11852;50.082;18.554;2023-03-24T00:48:43;8.0;;;4.0;;
23360;SDS011;11852;50.082;18.554;2023-03-24T00:49:53;7.0;;;3.0;;
23360;SDS011;11852;50.082;18.554;2023-03-24T00:51:05;7.0;;;3.0;;
23360;SDS011;11852;50.082;18.554;2023-03-24T00:52:15;6.0;;;3.0;;
23360;SDS011;11852;50.082;18.554;2023-03-24T00:53:34;7.0;;;3.0;;
23360;SDS011;11852;50.082;18.554;2023-03-24T00:54:45;7.0;;;3.0;;
23360;SDS011;11852;50.082;18.554;2023-03-24T00:56:05;8.0;;;3.0;;
23360;SDS011;11852;50.082;18.554;2023-03-24T00:57:13;7.0;;;3.0;;
23360;SDS011;11852;50.082;18.554;2023-03-24T00:58:23;6.0;;;3.0;;
23360;SDS011;11852;50.082;18.554;2023-03-24T00:59:33;6.0;;;2.0;;
23360;SDS011;11852;50.082;18.554;2023-03-24T01:00:54;8.0;;;3.0;;
23360;SDS011;11852;50.082;18.554;2023-03-24T01:02:03;5.0;;;2.0;;
23360;SDS011;11852;50.082;18.554;2023-03-24T01:03:11;7.0;;;3.0;;
23360;SDS011;11852;50.082;18.554;2023-03-24T01:04:27;7.0;;;3.0;;
23360;SDS011;11852;50.082;18.554;2023-03-24T01:05:35;8.0;;;4.0;;
23360;SDS011;11852;50.082;18.554;2023-03-24T01:06:42;8.0;;;4.0;;
23360;SDS011;11852;50.082;18.554;2023-03-24T01:07:52;7.0;;;3.0;;
23360;SDS011;11852;50.082;18.554;2023-03-24T01:08:59;8.0;;;4.0;;
23360;SDS011;11852;50.082;18.554;2023-03-24T01:10:11;9.0;;;4.0;;
23360;SDS011;11852;50.082;18.554;2023-03-24T01:11:17;8.0;;;4.0;;
23360;SDS011;11852;50.082;18.554;2023-03-24T01:12:28;10.0;;;4.0;;
23360;SDS011;11852;50.082;18.554;2023-03-24T01:13:38;9.0;;;4.0;;
23360;SDS011;11852;50.082;18.554;2023-03-24T01:14:44;9.0;;;4.0;;
23360;SDS011;11852;50.082;18.554;2023-03-24T01:15:51;8.0;;;4.0;;
23360;SDS011;11852;50.082;18.554;2023-03-24T01:17:02;9.0;;;4.0;;
23360;SDS011;11852;50.082;18.554;2023-03-24T01:18:12;9.0;;;4.0;;
23360;SDS011;11852;50.082;18.554;2023-03-24T01:19:23;8.0;;;4.0;;
23360;SDS011;11852;50.082;18.554;2023-03-24T01:20:33;10.0;;;4.0;;
23360;SDS011;11852;50.082;18.554;2023-03-24T01:21:44;8.0;;;4.0;;
23360;SDS011;11852;50.082;18.554;2023-03-24T01:22:52;8.0;;;4.0;;
23360;SDS011;11852;50.082;18.554;2023-03-24T01:24:03;8.0;;;4.0;;
23360;SDS011;11852;50.082;18.554;2023-03-24T01:25:11;8.0;;;4.0;;
23360;SDS011;11852;50.082;18.554;2023-03-24T01:26:19;9.0;;;4.0;;
23360;SDS011;11852;50.082;18.554;2023-03-24T01:27:25;8.0;;;4.0;;
23360;SDS011;11852;50.082;18.554;2023-03-24T01:28:33;9.0;;;4.0;;
23360;SDS011;11852;50.082;18.554;2023-03-24T01:29:43;9.0;;;4.0;;
23360;SDS011;11852;50.082;18.554;2023-03-24T01:30:53;8.0;;;4.0;;
23360;SDS011;11852;50.082;18.554;2023-03-24T01:32:14;10.0;;;4.0;;
23360;SDS011;11852;50.082;18.554;2023-03-24T01:33:22;8.0;;;4.0;;
23360;SDS011;11852;50.082;18.554;2023-03-24T01:34:32;8.0;;;4.0;;
23360;SDS011;11852;50.082;18.554;2023-03-24T01:35:40;9.0;;;4.0;;
23360;SDS011;11852;50.082;18.554;2023-03-24T01:36:50;8.0;;;4.0;;
23360;SDS011;11852;50.082;18.554;2023-03-24T01:37:57;9.0;;;4.0;;
23360;SDS011;11852;50.082;18.554;2023-03-24T01:39:08;8.0;;;5.0;;
23360;SDS011;11852;50.082;18.554;2023-03-24T01:40:20;10.0;;;5.0;;
23360;SDS011;11852;50.082;18.554;2023-03-24T01:41:29;9.0;;;5.0;;
23360;SDS011;11852;50.082;18.554;2023-03-24T01:42:38;10.0;;;5.0;;
23360;SDS011;11852;50.082;18.554;2023-03-24T01:43:48;8.0;;;5.0;;
23360;SDS011;11852;50.082;18.554;2023-03-24T01:45:38;8.0;;;5.0;;
23360;SDS011;11852;50.082;18.554;2023-03-24T01:46:13;9.0;;;5.0;;
23360;SDS011;11852;50.082;18.554;2023-03-24T01:47:19;9.0;;;5.0;;
23360;SDS011;11852;50.082;18.554;2023-03-24T01:52:13;11.0;;;6.0;;
23360;SDS011;11852;50.082;18.554;2023-03-24T01:53:23;11.0;;;6.0;;
23360;SDS011;11852;50.082;18.554;2023-03-24T01:54:36;14.0;;;7.0;;
23360;SDS011;11852;50.082;18.554;2023-03-24T01:55:47;12.0;;;7.0;;
23360;SDS011;11852;50.082;18.554;2023-03-24T01:58:07;11.0;;;6.0;;
23360;SDS011;11852;50.082;18.554;2023-03-24T01:59:28;12.0;;;6.0;;
23360;SDS011;11852;50.082;18.554;2023-03-24T02:00:31;12.0;;;6.0;;
23360;SDS011;11852;50.082;18.554;2023-03-24T02:01:39;10.0;;;6.0;;
23360;SDS011;11852;50.082;18.554;2023-03-24T02:04:19;11.0;;;7.0;;
23360;SDS011;11852;50.082;18.554;2023-03-24T02:05:37;11.0;;;7.0;;
23360;SDS011;11852;50.082;18.554;2023-03-24T02:06:50;12.0;;;7.0;;
23360;SDS011;11852;50.082;18.554;2023-03-24T02:08:05;11.0;;;7.0;;
23360;SDS011;11852;50.082;18.554;2023-03-24T02:09:16;11.0;;;7.0;;
23360;SDS011;11852;50.082;18.554;2023-03-24T02:10:24;12.0;;;7.0;;
23360;SDS011;11852;50.082;18.554;2023-03-24T02:11:32;11.0;;;7.0;;
23360;SDS011;11852;50.082;18.554;2023-03-24T02:12:39;14.0;;;7.0;;
23360;SDS011;11852;50.082;18.554;2023-03-24T02:13:49;11.0;;;7.0;;
23360;SDS011;11852;50.082;18.554;2023-03-24T02:14:56;12.0;;;6.0;;
23360;SDS011;11852;50.082;18.554;2023-03-24T02:26:14;13.0;;;7.0;;
23360;SDS011;11852;50.082;18.554;2023-03-24T02:37:28;15.0;;;8.0;;
23360;SDS011;11852;50.082;18.554;2023-03-24T02:40:03;12.0;;;7.0;;
23360;SDS011;11852;50.082;18.554;2023-03-24T02:50:11;14.0;;;8.0;;
23360;SDS011;11852;50.082;18.554;2023-03-24T02:51:16;13.0;;;7.0;;
23360;SDS011;11852;50.082;18.554;2023-03-24T02:53:54;12.0;;;8.0;;
23360;SDS011;11852;50.082;18.554;2023-03-24T02:59:04;15.0;;;8.0;;
23360;SDS011;11852;50.082;18.554;2023-03-24T03:01:34;16.0;;;7.0;;
23360;SDS011;11852;50.082;18.554;2023-03-24T03:02:47;15.0;;;8.0;;
23360;SDS011;11852;50.082;18.554;2023-03-24T03:03:53;12.0;;;7.0;;
23360;SDS011;11852;50.082;18.554;2023-03-24T03:05:06;15.0;;;7.0;;
23360;SDS011;11852;50.082;18.554;2023-03-24T03:07:35;15.0;;;8.0;;
23360;SDS011;11852;50.082;18.554;2023-03-24T03:08:46;14.0;;;8.0;;
23360;SDS011;11852;50.082;18.554;2023-03-24T03:11:13;16.0;;;8.0;;
23360;SDS011;11852;50.082;18.554;2023-03-24T03:12:19;15.0;;;8.0;;
23360;SDS011;11852;50.082;18.554;2023-03-24T03:13:29;17.0;;;9.0;;
23360;SDS011;11852;50.082;18.554;2023-03-24T03:14:38;18.0;;;9.0;;
23360;SDS011;11852;50.082;18.554;2023-03-24T03:15:50;17.0;;;9.0;;
23360;SDS011;11852;50.082;18.554;2023-03-24T03:16:58;19.0;;;9.0;;
23360;SDS011;11852;50.082;18.554;2023-03-24T03:20:30;17.0;;;8.0;;
23360;SDS011;11852;50.082;18.554;2023-03-24T03:21:40;16.0;;;8.0;;
23360;SDS011;11852;50.082;18.554;2023-03-24T03:22:53;15.0;;;8.0;;
23360;SDS011;11852;50.082;18.554;2023-03-24T03:24:11;14.0;;;8.0;;
23360;SDS011;11852;50.082;18.554;2023-03-24T03:25:27;15.0;;;8.0;;
23360;SDS011;11852;50.082;18.554;2023-03-24T03:26:30;15.0;;;8.0;;
23360;SDS011;11852;50.082;18.554;2023-03-24T03:27:39;16.0;;;9.0;;
23360;SDS011;11852;50.082;18.554;2023-03-24T03:28:49;16.0;;;9.0;;
23360;SDS011;11852;50.082;18.554;2023-03-24T03:29:58;14.0;;;8.0;;
23360;SDS011;11852;50.082;18.554;2023-03-24T03:33:38;16.0;;;9.0;;
23360;SDS011;11852;50.082;18.554;2023-03-24T03:34:42;14.0;;;8.0;;
23360;SDS011;11852;50.082;18.554;2023-03-24T03:35:49;15.0;;;9.0;;
23360;SDS011;11852;50.082;18.554;2023-03-24T03:37:08;18.0;;;9.0;;
23360;SDS011;11852;50.082;18.554;2023-03-24T03:39:31;15.0;;;10.0;;
23360;SDS011;11852;50.082;18.554;2023-03-24T03:40:40;17.0;;;9.0;;
23360;SDS011;11852;50.082;18.554;2023-03-24T03:41:46;16.0;;;9.0;;
23360;SDS011;11852;50.082;18.554;2023-03-24T03:42:53;14.0;;;9.0;;
23360;SDS011;11852;50.082;18.554;2023-03-24T03:44:02;18.0;;;10.0;;
23360;SDS011;11852;50.082;18.554;2023-03-24T03:45:12;14.0;;;9.0;;
23360;SDS011;11852;50.082;18.554;2023-03-24T03:46:19;17.0;;;10.0;;
23360;SDS011;11852;50.082;18.554;2023-03-24T03:47:26;16.0;;;10.0;;
23360;SDS011;11852;50.082;18.554;2023-03-24T03:48:50;17.0;;;9.0;;
23360;SDS011;11852;50.082;18.554;2023-03-24T03:49:57;15.0;;;8.0;;
23360;SDS011;11852;50.082;18.554;2023-03-24T03:51:06;15.0;;;8.0;;
23360;SDS011;11852;50.082;18.554;2023-03-24T03:52:17;14.0;;;9.0;;
23360;SDS011;11852;50.082;18.554;2023-03-24T03:53:27;16.0;;;9.0;;
23360;SDS011;11852;50.082;18.554;2023-03-24T03:54:35;15.0;;;7.0;;
23360;SDS011;11852;50.082;18.554;2023-03-24T03:55:53;15.0;;;8.0;;
23360;SDS011;11852;50.082;18.554;2023-03-24T03:57:01;14.0;;;7.0;;
23360;SDS011;11852;50.082;18.554;2023-03-24T03:58:09;14.0;;;9.0;;
23360;SDS011;11852;50.082;18.554;2023-03-24T04:00:33;18.0;;;9.0;;
23360;SDS011;11852;50.082;18.554;2023-03-24T04:01:43;16.0;;;9.0;;
23360;SDS011;11852;50.082;18.554;2023-03-24T04:05:35;17.0;;;10.0;;
23360;SDS011;11852;50.082;18.554;2023-03-24T04:22:02;21.0;;;10.0;;
23360;SDS011;11852;50.082;18.554;2023-03-24T04:23:19;18.0;;;10.0;;
23360;SDS011;11852;50.082;18.554;2023-03-24T04:28:26;17.0;;;9.0;;
23360;SDS011;11852;50.082;18.554;2023-03-24T04:30:56;18.0;;;10.0;;
23360;SDS011;11852;50.082;18.554;2023-03-24T04:32:08;15.0;;;8.0;;
23360;SDS011;11852;50.082;18.554;2023-03-24T04:33:13;15.0;;;9.0;;
23360;SDS011;11852;50.082;18.554;2023-03-24T04:35:36;17.0;;;8.0;;
23360;SDS011;11852;50.082;18.554;2023-03-24T04:38:00;17.0;;;9.0;;
23360;SDS011;11852;50.082;18.554;2023-03-24T04:39:09;18.0;;;10.0;;
23360;SDS011;11852;50.082;18.554;2023-03-24T04:40:15;16.0;;;9.0;;
23360;SDS011;11852;50.082;18.554;2023-03-24T04:41:22;17.0;;;9.0;;
23360;SDS011;11852;50.082;18.554;2023-03-24T04:43:41;15.0;;;9.0;;
23360;SDS011;11852;50.082;18.554;2023-03-24T04:44:48;15.0;;;9.0;;
23360;SDS011;11852;50.082;18.554;2023-03-24T04:45:55;12.0;;;7.0;;
23360;SDS011;11852;50.082;18.554;2023-03-24T04:47:02;14.0;;;7.0;;
23360;SDS011;11852;50.082;18.554;2023-03-24T04:48:09;16.0;;;8.0;;
23360;SDS011;11852;50.082;18.554;2023-03-24T04:49:17;12.0;;;8.0;;
23360;SDS011;11852;50.082;18.554;2023-03-24T04:51:36;14.0;;;9.0;;
23360;SDS011;11852;50.082;18.554;2023-03-24T04:52:46;16.0;;;9.0;;
23360;SDS011;11852;50.082;18.554;2023-03-24T04:53:53;13.0;;;9.0;;
23360;SDS011;11852;50.082;18.554;2023-03-24T04:55:02;14.0;;;10.0;;
23360;SDS011;11852;50.082;18.554;2023-03-24T04:57:28;15.0;;;8.0;;
23360;SDS011;11852;50.082;18.554;2023-03-24T04:58:39;13.0;;;9.0;;
23360;SDS011;11852;50.082;18.554;2023-03-24T04:59:46;14.0;;;9.0;;
23360;SDS011;11852;50.082;18.554;2023-03-24T05:00:53;14.0;;;9.0;;
23360;SDS011;11852;50.082;18.554;2023-03-24T05:02:01;15.0;;;9.0;;
23360;SDS011;11852;50.082;18.554;2023-03-24T05:03:14;14.0;;;9.0;;
23360;SDS011;11852;50.082;18.554;2023-03-24T05:04:22;17.0;;;10.0;;
23360;SDS011;11852;50.082;18.554;2023-03-24T05:05:27;14.0;;;8.0;;
23360;SDS011;11852;50.082;18.554;2023-03-24T05:06:34;12.0;;;8.0;;
23360;SDS011;11852;50.082;18.554;2023-03-24T05:07:42;14.0;;;9.0;;
23360;SDS011;11852;50.082;18.554;2023-03-24T05:08:51;14.0;;;8.0;;
23360;SDS011;11852;50.082;18.554;2023-03-24T05:10:00;14.0;;;9.0;;
23360;SDS011;11852;50.082;18.554;2023-03-24T05:11:08;13.0;;;8.0;;
23360;SDS011;11852;50.082;18.554;2023-03-24T05:12:15;15.0;;;9.0;;
23360;SDS011;11852;50.082;18.554;2023-03-24T05:13:22;14.0;;;10.0;;
23360;SDS011;11852;50.082;18.554;2023-03-24T05:14:32;13.0;;;8.0;;
23360;SDS011;11852;50.082;18.554;2023-03-24T05:15:40;16.0;;;9.0;;
23360;SDS011;11852;50.082;18.554;2023-03-24T05:16:49;14.0;;;9.0;;
23360;SDS011;11852;50.082;18.554;2023-03-24T05:17:56;15.0;;;9.0;;
23360;SDS011;11852;50.082;18.554;2023-03-24T05:19:03;13.0;;;9.0;;
23360;SDS011;11852;50.082;18.554;2023-03-24T05:20:13;16.0;;;10.0;;
23360;SDS011;11852;50.082;18.554;2023-03-24T05:21:22;15.0;;;9.0;;
23360;SDS011;11852;50.082;18.554;2023-03-24T05:22:30;15.0;;;10.0;;
23360;SDS011;11852;50.082;18.554;2023-03-24T05:23:37;17.0;;;10.0;;
23360;SDS011;11852;50.082;18.554;2023-03-24T05:24:44;14.0;;;9.0;;
23360;SDS011;11852;50.082;18.554;2023-03-24T05:25:51;14.0;;;9.0;;
23360;SDS011;11852;50.082;18.554;2023-03-24T05:26:58;16.0;;;11.0;;
23360;SDS011;11852;50.082;18.554;2023-03-24T05:28:05;15.0;;;10.0;;
23360;SDS011;11852;50.082;18.554;2023-03-24T05:29:15;16.0;;;10.0;;
23360;SDS011;11852;50.082;18.554;2023-03-24T05:30:23;16.0;;;10.0;;
23360;SDS011;11852;50.082;18.554;2023-03-24T05:31:31;19.0;;;10.0;;
23360;SDS011;11852;50.082;18.554;2023-03-24T05:32:40;15.0;;;10.0;;
23360;SDS011;11852;50.082;18.554;2023-03-24T05:33:47;16.0;;;10.0;;
23360;SDS011;11852;50.082;18.554;2023-03-24T05:34:54;18.0;;;11.0;;
23360;SDS011;11852;50.082;18.554;2023-03-24T05:36:01;17.0;;;9.0;;
23360;SDS011;11852;50.082;18.554;2023-03-24T05:37:08;17.0;;;10.0;;
23360;SDS011;11852;50.082;18.554;2023-03-24T05:38:17;16.0;;;10.0;;
23360;SDS011;11852;50.082;18.554;2023-03-24T05:39:25;17.0;;;10.0;;
23360;SDS011;11852;50.082;18.554;2023-03-24T05:40:32;17.0;;;9.0;;
23360;SDS011;11852;50.082;18.554;2023-03-24T05:41:39;16.0;;;10.0;;
23360;SDS011;11852;50.082;18.554;2023-03-24T05:42:49;18.0;;;10.0;;
23360;SDS011;11852;50.082;18.554;2023-03-24T05:43:59;16.0;;;10.0;;
23360;SDS011;11852;50.082;18.554;2023-03-24T05:45:07;16.0;;;10.0;;
23360;SDS011;11852;50.082;18.554;2023-03-24T05:46:15;16.0;;;9.0;;
23360;SDS011;11852;50.082;18.554;2023-03-24T05:47:22;17.0;;;10.0;;
23360;SDS011;11852;50.082;18.554;2023-03-24T05:48:29;14.0;;;8.0;;
23360;SDS011;11852;50.082;18.554;2023-03-24T05:49:38;16.0;;;9.0;;
23360;SDS011;11852;50.082;18.554;2023-03-24T05:50:47;15.0;;;8.0;;
23360;SDS011;11852;50.082;18.554;2023-03-24T05:51:54;19.0;;;9.0;;
23360;SDS011;11852;50.082;18.554;2023-03-24T05:53:01;14.0;;;9.0;;
23360;SDS011;11852;50.082;18.554;2023-03-24T05:54:09;15.0;;;9.0;;
23360;SDS011;11852;50.082;18.554;2023-03-24T05:55:16;15.0;;;9.0;;
23360;SDS011;11852;50.082;18.554;2023-03-24T05:56:24;17.0;;;9.0;;
23360;SDS011;11852;50.082;18.554;2023-03-24T05:57:31;15.0;;;9.0;;
23360;SDS011;11852;50.082;18.554;2023-03-24T05:58:39;15.0;;;9.0;;
23360;SDS011;11852;50.082;18.554;2023-03-24T05:59:46;16.0;;;9.0;;
23360;SDS011;11852;50.082;18.554;2023-03-24T06:00:57;12.0;;;8.0;;
23360;SDS011;11852;50.082;18.554;2023-03-24T06:02:05;12.0;;;8.0;;
23360;SDS011;11852;50.082;18.554;2023-03-24T06:03:12;14.0;;;8.0;;
23360;SDS011;11852;50.082;18.554;2023-03-24T06:04:22;11.0;;;7.0;;
23360;SDS011;11852;50.082;18.554;2023-03-24T06:05:32;13.0;;;8.0;;
23360;SDS011;11852;50.082;18.554;2023-03-24T06:06:39;13.0;;;8.0;;
23360;SDS011;11852;50.082;18.554;2023-03-24T06:07:47;12.0;;;8.0;;
23360;SDS011;11852;50.082;18.554;2023-03-24T06:08:56;12.0;;;8.0;;
23360;SDS011;11852;50.082;18.554;2023-03-24T06:10:03;12.0;;;8.0;;
23360;SDS011;11852;50.082;18.554;2023-03-24T06:11:11;13.0;;;7.0;;
23360;SDS011;11852;50.082;18.554;2023-03-24T06:12:19;13.0;;;7.0;;
23360;SDS011;11852;50.082;18.554;2023-03-24T06:13:27;12.0;;;8.0;;
23360;SDS011;11852;50.082;18.554;2023-03-24T06:14:33;15.0;;;8.0;;
23360;SDS011;11852;50.082;18.554;2023-03-24T06:15:41;12.0;;;8.0;;
23360;SDS011;11852;50.082;18.554;2023-03-24T06:16:48;11.0;;;8.0;;
23360;SDS011;11852;50.082;18.554;2023-03-24T06:17:57;13.0;;;8.0;;
23360;SDS011;11852;50.082;18.554;2023-03-24T06:19:04;17.0;;;8.0;;
23360;SDS011;11852;50.082;18.554;2023-03-24T06:20:14;12.0;;;7.0;;
23360;SDS011;11852;50.082;18.554;2023-03-24T06:21:21;12.0;;;7.0;;
23360;SDS011;11852;50.082;18.554;2023-03-24T06:22:31;13.0;;;7.0;;
23360;SDS011;11852;50.082;18.554;2023-03-24T06:23:39;13.0;;;7.0;;
23360;SDS011;11852;50.082;18.554;2023-03-24T06:24:47;11.0;;;7.0;;
23360;SDS011;11852;50.082;18.554;2023-03-24T06:25:57;14.0;;;6.0;;
23360;SDS011;11852;50.082;18.554;2023-03-24T06:27:05;12.0;;;7.0;;
23360;SDS011;11852;50.082;18.554;2023-03-24T06:28:13;12.0;;;6.0;;
23360;SDS011;11852;50.082;18.554;2023-03-24T06:29:20;11.0;;;7.0;;
23360;SDS011;11852;50.082;18.554;2023-03-24T06:30:28;14.0;;;7.0;;
23360;SDS011;11852;50.082;18.554;2023-03-24T06:31:37;13.0;;;7.0;;
23360;SDS011;11852;50.082;18.554;2023-03-24T06:32:47;12.0;;;6.0;;
23360;SDS011;11852;50.082;18.554;2023-03-24T06:33:54;16.0;;;7.0;;
23360;SDS011;11852;50.082;18.554;2023-03-24T06:35:01;14.0;;;7.0;;
23360;SDS011;11852;50.082;18.554;2023-03-24T06:36:08;15.0;;;8.0;;
23360;SDS011;11852;50.082;18.554;2023-03-24T06:37:15;14.0;;;8.0;;
23360;SDS011;11852;50.082;18.554;2023-03-24T06:38:22;12.0;;;7.0;;
23360;SDS011;11852;50.082;18.554;2023-03-24T06:39:32;12.0;;;7.0;;
23360;SDS011;11852;50.082;18.554;2023-03-24T06:40:39;11.0;;;7.0;;
23360;SDS011;11852;50.082;18.554;2023-03-24T06:41:47;15.0;;;8.0;;
23360;SDS011;11852;50.082;18.554;2023-03-24T06:42:58;13.0;;;8.0;;
23360;SDS011;11852;50.082;18.554;2023-03-24T06:44:05;13.0;;;8.0;;
23360;SDS011;11852;50.082;18.554;2023-03-24T06:45:15;14.0;;;8.0;;
23360;SDS011;11852;50.082;18.554;2023-03-24T06:46:22;12.0;;;6.0;;
23360;SDS011;11852;50.082;18.554;2023-03-24T06:47:30;13.0;;;7.0;;
23360;SDS011;11852;50.082;18.554;2023-03-24T06:48:38;11.0;;;6.0;;
23360;SDS011;11852;50.082;18.554;2023-03-24T06:49:47;14.0;;;6.0;;
23360;SDS011;11852;50.082;18.554;2023-03-24T06:50:54;11.0;;;6.0;;
23360;SDS011;11852;50.082;18.554;2023-03-24T06:52:03;13.0;;;7.0;;
23360;SDS011;11852;50.082;18.554;2023-03-24T06:53:09;13.0;;;6.0;;
23360;SDS011;11852;50.082;18.554;2023-03-24T06:54:16;11.0;;;7.0;;
23360;SDS011;11852;50.082;18.554;2023-03-24T06:55:23;13.0;;;6.0;;
23360;SDS011;11852;50.082;18.554;2023-03-24T06:56:30;14.0;;;7.0;;
23360;SDS011;11852;50.082;18.554;2023-03-24T06:57:38;11.0;;;6.0;;
23360;SDS011;11852;50.082;18.554;2023-03-24T06:58:45;14.0;;;6.0;;
23360;SDS011;11852;50.082;18.554;2023-03-24T06:59:55;15.0;;;7.0;;
23360;SDS011;11852;50.082;18.554;2023-03-24T07:01:04;13.0;;;7.0;;
23360;SDS011;11852;50.082;18.554;2023-03-24T07:02:19;14.0;;;6.0;;
23360;SDS011;11852;50.082;18.554;2023-03-24T07:03:43;13.0;;;7.0;;
23360;SDS011;11852;50.082;18.554;2023-03-24T07:04:52;12.0;;;7.0;;
23360;SDS011;11852;50.082;18.554;2023-03-24T07:06:03;19.0;;;7.0;;
23360;SDS011;11852;50.082;18.554;2023-03-24T07:07:11;14.0;;;7.0;;
23360;SDS011;11852;50.082;18.554;2023-03-24T07:08:25;13.0;;;8.0;;
23360;SDS011;11852;50.082;18.554;2023-03-24T07:09:32;16.0;;;8.0;;
23360;SDS011;11852;50.082;18.554;2023-03-24T07:11:00;12.0;;;6.0;;
23360;SDS011;11852;50.082;18.554;2023-03-24T07:12:10;13.0;;;6.0;;
23360;SDS011;11852;50.082;18.554;2023-03-24T07:13:18;16.0;;;7.0;;
23360;SDS011;11852;50.082;18.554;2023-03-24T07:14:25;14.0;;;7.0;;
23360;SDS011;11852;50.082;18.554;2023-03-24T07:15:38;15.0;;;8.0;;
23360;SDS011;11852;50.082;18.554;2023-03-24T07:16:48;14.0;;;7.0;;
23360;SDS011;11852;50.082;18.554;2023-03-24T07:17:56;14.0;;;7.0;;
23360;SDS011;11852;50.082;18.554;2023-03-24T07:19:14;14.0;;;7.0;;
23360;SDS011;11852;50.082;18.554;2023-03-24T07:20:23;12.0;;;6.0;;
23360;SDS011;11852;50.082;18.554;2023-03-24T07:21:31;12.0;;;7.0;;
23360;SDS011;11852;50.082;18.554;2023-03-24T07:22:39;14.0;;;7.0;;
23360;SDS011;11852;50.082;18.554;2023-03-24T07:23:46;13.0;;;7.0;;
23360;SDS011;11852;50.082;18.554;2023-03-24T07:25:15;11.0;;;7.0;;
23360;SDS011;11852;50.082;18.554;2023-03-24T07:26:34;11.0;;;6.0;;
23360;SDS011;11852;50.082;18.554;2023-03-24T07:27:42;12.0;;;6.0;;
23360;SDS011;11852;50.082;18.554;2023-03-24T07:28:51;12.0;;;7.0;;
23360;SDS011;11852;50.082;18.554;2023-03-24T07:29:59;14.0;;;7.0;;
23360;SDS011;11852;50.082;18.554;2023-03-24T07:31:06;12.0;;;6.0;;
23360;SDS011;11852;50.082;18.554;2023-03-24T07:32:16;14.0;;;7.0;;
23360;SDS011;11852;50.082;18.554;2023-03-24T07:33:27;14.0;;;8.0;;
23360;SDS011;11852;50.082;18.554;2023-03-24T07:34:34;15.0;;;8.0;;
23360;SDS011;11852;50.082;18.554;2023-03-24T07:35:42;16.0;;;9.0;;
23360;SDS011;11852;50.082;18.554;2023-03-24T07:36:55;16.0;;;10.0;;
23360;SDS011;11852;50.082;18.554;2023-03-24T07:38:02;15.0;;;8.0;;
23360;SDS011;11852;50.082;18.554;2023-03-24T07:39:10;19.0;;;13.0;;
23360;SDS011;11852;50.082;18.554;2023-03-24T07:40:18;19.0;;;12.0;;
23360;SDS011;11852;50.082;18.554;2023-03-24T07:41:29;16.0;;;10.0;;
23360;SDS011;11852;50.082;18.554;2023-03-24T07:42:40;17.0;;;10.0;;
23360;SDS011;11852;50.082;18.554;2023-03-24T07:43:46;18.0;;;9.0;;
23360;SDS011;11852;50.082;18.554;2023-03-24T07:44:53;17.0;;;10.0;;
23360;SDS011;11852;50.082;18.554;2023-03-24T07:46:02;17.0;;;10.0;;
23360;SDS011;11852;50.082;18.554;2023-03-24T07:47:12;16.0;;;10.0;;
23360;SDS011;11852;50.082;18.554;2023-03-24T07:48:19;17.0;;;11.0;;
23360;SDS011;11852;50.082;18.554;2023-03-24T07:49:26;16.0;;;10.0;;
23360;SDS011;11852;50.082;18.554;2023-03-24T07:50:34;15.0;;;10.0;;
23360;SDS011;11852;50.082;18.554;2023-03-24T07:51:42;15.0;;;8.0;;
23360;SDS011;11852;50.082;18.554;2023-03-24T07:52:51;13.0;;;8.0;;
23360;SDS011;11852;50.082;18.554;2023-03-24T07:54:00;13.0;;;8.0;;
23360;SDS011;11852;50.082;18.554;2023-03-24T07:55:10;14.0;;;9.0;;
23360;SDS011;11852;50.082;18.554;2023-03-24T07:56:22;11.0;;;7.0;;
23360;SDS011;11852;50.082;18.554;2023-03-24T07:57:32;17.0;;;10.0;;
23360;SDS011;11852;50.082;18.554;2023-03-24T07:58:41;14.0;;;10.0;;
23360;SDS011;11852;50.082;18.554;2023-03-24T07:59:48;19.0;;;15.0;;
23360;SDS011;11852;50.082;18.554;2023-03-24T08:00:55;20.0;;;16.0;;
23360;SDS011;11852;50.082;18.554;2023-03-24T08:02:02;17.0;;;12.0;;
23360;SDS011;11852;50.082;18.554;2023-03-24T08:03:11;19.0;;;15.0;;
23360;SDS011;11852;50.082;18.554;2023-03-24T08:04:20;14.0;;;12.0;;
23360;SDS011;11852;50.082;18.554;2023-03-24T08:05:28;14.0;;;10.0;;
23360;SDS011;11852;50.082;18.554;2023-03-24T08:06:34;13.0;;;9.0;;
23360;SDS011;11852;50.082;18.554;2023-03-24T08:07:42;16.0;;;10.0;;
23360;SDS011;11852;50.082;18.554;2023-03-24T08:09:01;14.0;;;9.0;;
23360;SDS011;11852;50.082;18.554;2023-03-24T08:10:12;12.0;;;7.0;;
23360;SDS011;11852;50.082;18.554;2023-03-24T08:11:51;13.0;;;7.0;;
23360;SDS011;11852;50.082;18.554;2023-03-24T08:14:19;12.0;;;7.0;;
23360;SDS011;11852;50.082;18.554;2023-03-24T08:16:26;11.0;;;6.0;;
23360;SDS011;11852;50.082;18.554;2023-03-24T08:18:25;13.0;;;6.0;;
23360;SDS011;11852;50.082;18.554;2023-03-24T08:19:37;10.0;;;6.0;;
23360;SDS011;11852;50.082;18.554;2023-03-24T08:20:48;11.0;;;5.0;;
23360;SDS011;11852;50.082;18.554;2023-03-24T08:21:54;13.0;;;6.0;;
23360;SDS011;11852;50.082;18.554;2023-03-24T08:24:01;10.0;;;6.0;;
23360;SDS011;11852;50.082;18.554;2023-03-24T08:25:14;10.0;;;5.0;;
23360;SDS011;11852;50.082;18.554;2023-03-24T08:26:20;10.0;;;5.0;;